Jacobs, Kentucky
Current Conditions -  °F | °C
As of 5:10 PM on Thursday 27 Nov 2014 (Local Time) from KSYM Reporting Station
Overcast Overcast  
Wind Chill: 23°   Ceiling: 3800
Heat Index: 32°   Visibility: 10mi
Dew Point: 21°   Wind: 12mph
Humidity: 64%   Direction: 290°WNW
Pressure: 30.33"   Gusts: 17mph
Location:  38.23°N, 83.24°W
Report Text: KSYM 272210Z AUTO 29010G15KT 10SM SCT031 BKN038 OVC046 00/M06 A3033 RMK AO2
Loading
Personal Weather Stations






























Interactive Weather Map New forecast layout! Learn more

10-Day Weather Forecast

Advertisements
Track Severe Weather on mobile